This is the latest recevied weather packets stored in our database for station/object KE8ZLU. If no packets are shown the sender has not sent any weather packets the latest 10 day(s).
| Time | Temp. | Humidity | Pressure | Rain* | Wind** | Luminosity | Snow |
|---|---|---|---|---|---|---|---|
| 1777831704 | 16.11° C | 45% | 1012.1 hPa | 0 mm | - | 696 W/m² | - |
| 1777831402 | 15.56° C | 48% | 1012.4 hPa | 0 mm | - | 361 W/m² | - |
| 1777831098 | 15.56° C | 46% | 1012.2 hPa | 0 mm | - | 707 W/m² | - |
| 1777830796 | 14.44° C | 48% | 1012.6 hPa | 0 mm | - | 416 W/m² | - |
| 1777830492 | 15° C | 47% | 1012.8 hPa | 0 mm | - | 237 W/m² | - |
| 1777830190 | 16.11° C | 45% | 1012.5 hPa | 0 mm | - | 891 W/m² | - |
| 1777829885 | 15° C | 47% | 1012.9 hPa | 0 mm | - | 577 W/m² | - |
| 1777829581 | 15.56° C | 46% | 1013 hPa | 0 mm | - | 640 W/m² | - |
| 1777829278 | 15.56° C | 48% | 1012.9 hPa | 0 mm | - | 691 W/m² | - |
| 1777828976 | 15° C | 45% | 1013 hPa | 0 mm | - | 526 W/m² | - |
| 1777828672 | 15° C | 46% | 1013.3 hPa | 0 mm | - | 356 W/m² | - |
| 1777828369 | 15° C | 46% | 1012.9 hPa | 0 mm | - | 347 W/m² | - |
| 1777828066 | 14.44° C | 49% | 1013.2 hPa | 0 mm | - | 248 W/m² | - |
| 1777827763 | 15° C | 47% | 1013.2 hPa | 0 mm | - | 190 W/m² | - |
| 1777827460 | 13.89° C | 49% | 1013.2 hPa | 0 mm | - | 240 W/m² | - |
| 1777827157 | 13.89° C | 49% | 1013.5 hPa | 0 mm | - | 289 W/m² | - |
| 1777826853 | 13.89° C | 49% | 1013.5 hPa | 0 mm | - | 251 W/m² | - |
| 1777826551 | 13.33° C | 52% | 1013.5 hPa | 0 mm | - | 281 W/m² | - |
| 1777826247 | 13.33° C | 51% | 1013.5 hPa | 0 mm | - | 296 W/m² | - |
| 1777825945 | 13.33° C | 51% | 1013.8 hPa | 0 mm | - | 294 W/m² | - |
| 1777825641 | 13.33° C | 50% | 1013.9 hPa | 0 mm | - | 298 W/m² | - |
| 1777825340 | 13.33° C | 49% | 1014 hPa | 0 mm | - | 426 W/m² | - |
| 1777825036 | 12.78° C | 51% | 1013.8 hPa | 0 mm | - | 575 W/m² | - |
| 1777824732 | 12.78° C | 53% | 1013.9 hPa | 0 mm | - | 556 W/m² | - |
| 1777824429 | 12.78° C | 53% | 1014 hPa | 0 mm | - | 349 W/m² | - |
* Rain latest hour (hover to see other rain measurements)
** Current wind speed in m/s (hover to see current wind gust speed)